sensor_id;sensor_type;location;lat;lon;timestamp;temperature;humidity
30999;DHT22;20549;50.042;8.968;2023-05-02T00:01:43;16.50;57.60
30999;DHT22;20549;50.042;8.968;2023-05-02T00:04:09;16.50;57.60
30999;DHT22;20549;50.042;8.968;2023-05-02T00:06:36;16.50;57.70
30999;DHT22;20549;50.042;8.968;2023-05-02T00:09:03;16.50;57.80
30999;DHT22;20549;50.042;8.968;2023-05-02T00:11:29;16.40;57.70
30999;DHT22;20549;50.042;8.968;2023-05-02T00:13:56;16.40;57.80
30999;DHT22;20549;50.042;8.968;2023-05-02T00:16:22;16.40;57.80
30999;DHT22;20549;50.042;8.968;2023-05-02T00:18:49;16.30;57.80
30999;DHT22;20549;50.042;8.968;2023-05-02T00:21:15;16.30;58.00
30999;DHT22;20549;50.042;8.968;2023-05-02T00:23:42;16.20;58.00
30999;DHT22;20549;50.042;8.968;2023-05-02T00:26:09;16.20;58.10
30999;DHT22;20549;50.042;8.968;2023-05-02T00:28:36;16.20;58.20
30999;DHT22;20549;50.042;8.968;2023-05-02T00:31:03;16.10;58.30
30999;DHT22;20549;50.042;8.968;2023-05-02T00:33:28;16.10;58.30
30999;DHT22;20549;50.042;8.968;2023-05-02T00:35:55;16.10;58.40
30999;DHT22;20549;50.042;8.968;2023-05-02T00:38:22;16.00;58.40
30999;DHT22;20549;50.042;8.968;2023-05-02T00:40:49;16.00;58.50
30999;DHT22;20549;50.042;8.968;2023-05-02T00:43:15;16.00;58.60
30999;DHT22;20549;50.042;8.968;2023-05-02T00:45:42;15.90;58.70
30999;DHT22;20549;50.042;8.968;2023-05-02T00:48:08;15.90;58.80
30999;DHT22;20549;50.042;8.968;2023-05-02T00:50:38;15.90;58.90
30999;DHT22;20549;50.042;8.968;2023-05-02T00:53:04;15.90;59.00
30999;DHT22;20549;50.042;8.968;2023-05-02T00:55:31;15.90;58.90
30999;DHT22;20549;50.042;8.968;2023-05-02T00:57:57;15.80;59.00
30999;DHT22;20549;50.042;8.968;2023-05-02T01:00:25;15.80;59.00
30999;DHT22;20549;50.042;8.968;2023-05-02T01:02:52;15.80;59.10
30999;DHT22;20549;50.042;8.968;2023-05-02T01:05:19;15.70;59.10
30999;DHT22;20549;50.042;8.968;2023-05-02T01:08:06;15.60;59.10
30999;DHT22;20549;50.042;8.968;2023-05-02T01:13:23;15.50;59.30
30999;DHT22;20549;50.042;8.968;2023-05-02T01:15:49;15.30;59.30
30999;DHT22;20549;50.042;8.968;2023-05-02T01:18:14;15.20;59.50
30999;DHT22;20549;50.042;8.968;2023-05-02T01:20:42;15.20;59.70
30999;DHT22;20549;50.042;8.968;2023-05-02T01:23:22;15.10;60.00
30999;DHT22;20549;50.042;8.968;2023-05-02T01:31:19;14.90;60.30
30999;DHT22;20549;50.042;8.968;2023-05-02T01:33:45;14.90;60.60
30999;DHT22;20549;50.042;8.968;2023-05-02T01:36:12;14.80;60.80
30999;DHT22;20549;50.042;8.968;2023-05-02T01:38:38;14.80;61.10
30999;DHT22;20549;50.042;8.968;2023-05-02T01:41:05;14.80;61.20
30999;DHT22;20549;50.042;8.968;2023-05-02T01:43:32;14.80;61.40
30999;DHT22;20549;50.042;8.968;2023-05-02T01:45:58;14.80;61.40
30999;DHT22;20549;50.042;8.968;2023-05-02T01:48:25;14.80;61.50
30999;DHT22;20549;50.042;8.968;2023-05-02T01:50:51;14.80;61.50
30999;DHT22;20549;50.042;8.968;2023-05-02T01:53:18;14.80;61.60
30999;DHT22;20549;50.042;8.968;2023-05-02T01:55:45;14.80;61.70
30999;DHT22;20549;50.042;8.968;2023-05-02T01:58:11;14.70;62.10
30999;DHT22;20549;50.042;8.968;2023-05-02T02:00:38;14.70;61.60
30999;DHT22;20549;50.042;8.968;2023-05-02T02:03:04;14.60;61.70
30999;DHT22;20549;50.042;8.968;2023-05-02T02:05:31;14.60;61.70
30999;DHT22;20549;50.042;8.968;2023-05-02T02:07:57;14.50;61.70
30999;DHT22;20549;50.042;8.968;2023-05-02T02:10:24;14.40;61.90
30999;DHT22;20549;50.042;8.968;2023-05-02T02:12:51;14.40;62.10
30999;DHT22;20549;50.042;8.968;2023-05-02T02:15:18;14.30;62.30
30999;DHT22;20549;50.042;8.968;2023-05-02T02:18:00;14.20;62.50
30999;DHT22;20549;50.042;8.968;2023-05-02T02:20:29;14.20;62.80
30999;DHT22;20549;50.042;8.968;2023-05-02T02:22:52;14.00;62.70
30999;DHT22;20549;50.042;8.968;2023-05-02T02:25:19;14.00;63.00
30999;DHT22;20549;50.042;8.968;2023-05-02T02:27:46;13.90;63.30
30999;DHT22;20549;50.042;8.968;2023-05-02T02:30:12;13.80;63.30
30999;DHT22;20549;50.042;8.968;2023-05-02T02:32:39;13.80;63.60
30999;DHT22;20549;50.042;8.968;2023-05-02T02:35:05;13.70;63.80
30999;DHT22;20549;50.042;8.968;2023-05-02T02:37:34;13.60;63.90
30999;DHT22;20549;50.042;8.968;2023-05-02T02:40:30;13.60;64.20
30999;DHT22;20549;50.042;8.968;2023-05-02T02:42:54;13.60;64.20
30999;DHT22;20549;50.042;8.968;2023-05-02T02:45:37;13.50;64.00
30999;DHT22;20549;50.042;8.968;2023-05-02T02:48:10;13.50;64.40
30999;DHT22;20549;50.042;8.968;2023-05-02T02:51:19;13.40;64.30
30999;DHT22;20549;50.042;8.968;2023-05-02T02:53:07;13.40;64.60
30999;DHT22;20549;50.042;8.968;2023-05-02T03:00:28;13.30;65.20
30999;DHT22;20549;50.042;8.968;2023-05-02T03:02:54;13.30;65.40
30999;DHT22;20549;50.042;8.968;2023-05-02T03:05:21;13.20;65.50
30999;DHT22;20549;50.042;8.968;2023-05-02T03:07:48;13.30;65.70
30999;DHT22;20549;50.042;8.968;2023-05-02T03:10:14;13.20;66.50
30999;DHT22;20549;50.042;8.968;2023-05-02T03:12:41;13.20;65.90
30999;DHT22;20549;50.042;8.968;2023-05-02T03:17:56;13.20;66.00
30999;DHT22;20549;50.042;8.968;2023-05-02T03:20:22;13.20;65.80
30999;DHT22;20549;50.042;8.968;2023-05-02T03:22:49;13.20;66.10
30999;DHT22;20549;50.042;8.968;2023-05-02T03:25:15;13.10;66.00
30999;DHT22;20549;50.042;8.968;2023-05-02T03:27:42;13.10;66.10
30999;DHT22;20549;50.042;8.968;2023-05-02T03:30:09;13.00;66.20
30999;DHT22;20549;50.042;8.968;2023-05-02T03:32:35;12.90;66.20
30999;DHT22;20549;50.042;8.968;2023-05-02T03:35:02;12.90;65.60
30999;DHT22;20549;50.042;8.968;2023-05-02T03:37:28;12.90;66.50
30999;DHT22;20549;50.042;8.968;2023-05-02T03:39:55;12.80;66.60
30999;DHT22;20549;50.042;8.968;2023-05-02T03:42:22;12.80;66.80
30999;DHT22;20549;50.042;8.968;2023-05-02T03:44:50;12.70;66.90
30999;DHT22;20549;50.042;8.968;2023-05-02T03:47:15;12.60;67.10
30999;DHT22;20549;50.042;8.968;2023-05-02T03:49:41;12.60;67.30
30999;DHT22;20549;50.042;8.968;2023-05-02T03:52:08;12.50;67.50
30999;DHT22;20549;50.042;8.968;2023-05-02T03:54:34;12.50;67.60
30999;DHT22;20549;50.042;8.968;2023-05-02T03:57:01;12.40;67.80
30999;DHT22;20549;50.042;8.968;2023-05-02T03:59:28;12.40;67.80
30999;DHT22;20549;50.042;8.968;2023-05-02T04:01:54;12.40;68.00
30999;DHT22;20549;50.042;8.968;2023-05-02T04:04:21;12.30;68.10
30999;DHT22;20549;50.042;8.968;2023-05-02T04:06:47;12.30;68.20
30999;DHT22;20549;50.042;8.968;2023-05-02T04:09:14;12.20;68.20
30999;DHT22;20549;50.042;8.968;2023-05-02T04:11:41;12.20;68.50
30999;DHT22;20549;50.042;8.968;2023-05-02T04:14:07;12.20;68.70
30999;DHT22;20549;50.042;8.968;2023-05-02T04:16:34;12.20;69.00
30999;DHT22;20549;50.042;8.968;2023-05-02T04:19:00;12.20;69.30
30999;DHT22;20549;50.042;8.968;2023-05-02T04:21:27;12.20;69.50
30999;DHT22;20549;50.042;8.968;2023-05-02T04:23:54;12.30;70.40
30999;DHT22;20549;50.042;8.968;2023-05-02T04:26:20;12.30;69.80
30999;DHT22;20549;50.042;8.968;2023-05-02T04:28:47;12.40;69.90
30999;DHT22;20549;50.042;8.968;2023-05-02T04:31:13;12.50;70.00
30999;DHT22;20549;50.042;8.968;2023-05-02T04:33:40;12.50;70.00
30999;DHT22;20549;50.042;8.968;2023-05-02T04:36:07;12.60;70.00
30999;DHT22;20549;50.042;8.968;2023-05-02T04:38:33;12.60;70.70
30999;DHT22;20549;50.042;8.968;2023-05-02T04:41:00;12.70;70.10
30999;DHT22;20549;50.042;8.968;2023-05-02T04:43:26;12.80;70.10
30999;DHT22;20549;50.042;8.968;2023-05-02T04:45:53;12.90;70.20
30999;DHT22;20549;50.042;8.968;2023-05-02T04:48:19;12.90;70.10
30999;DHT22;20549;50.042;8.968;2023-05-02T04:50:46;13.00;70.30
30999;DHT22;20549;50.042;8.968;2023-05-02T04:53:13;13.00;70.10
30999;DHT22;20549;50.042;8.968;2023-05-02T04:55:39;13.10;70.20
30999;DHT22;20549;50.042;8.968;2023-05-02T04:58:06;13.20;70.20
30999;DHT22;20549;50.042;8.968;2023-05-02T05:00:32;13.20;70.10
30999;DHT22;20549;50.042;8.968;2023-05-02T05:02:59;13.30;70.10
30999;DHT22;20549;50.042;8.968;2023-05-02T05:05:25;13.30;70.00
30999;DHT22;20549;50.042;8.968;2023-05-02T05:07:52;13.40;70.20
30999;DHT22;20549;50.042;8.968;2023-05-02T05:10:19;13.40;70.20
30999;DHT22;20549;50.042;8.968;2023-05-02T05:12:45;13.50;70.30
30999;DHT22;20549;50.042;8.968;2023-05-02T05:15:12;13.60;70.40
30999;DHT22;20549;50.042;8.968;2023-05-02T05:17:38;13.70;70.60
30999;DHT22;20549;50.042;8.968;2023-05-02T05:20:05;13.80;70.70
30999;DHT22;20549;50.042;8.968;2023-05-02T05:22:36;13.90;70.80
30999;DHT22;20549;50.042;8.968;2023-05-02T05:24:58;14.00;70.80
30999;DHT22;20549;50.042;8.968;2023-05-02T05:27:25;14.20;70.40
30999;DHT22;20549;50.042;8.968;2023-05-02T05:29:52;14.30;70.30
30999;DHT22;20549;50.042;8.968;2023-05-02T05:32:18;14.40;70.00
30999;DHT22;20549;50.042;8.968;2023-05-02T05:34:45;14.50;69.80
30999;DHT22;20549;50.042;8.968;2023-05-02T05:37:11;14.60;69.60
30999;DHT22;20549;50.042;8.968;2023-05-02T05:39:38;14.70;69.40
30999;DHT22;20549;50.042;8.968;2023-05-02T05:42:05;14.80;69.20
30999;DHT22;20549;50.042;8.968;2023-05-02T05:44:31;14.80;68.90
30999;DHT22;20549;50.042;8.968;2023-05-02T05:46:58;14.90;68.70
30999;DHT22;20549;50.042;8.968;2023-05-02T05:49:24;15.00;68.60
30999;DHT22;20549;50.042;8.968;2023-05-02T05:51:51;15.10;68.50
30999;DHT22;20549;50.042;8.968;2023-05-02T05:54:18;15.10;68.40
30999;DHT22;20549;50.042;8.968;2023-05-02T05:56:44;15.20;68.40
30999;DHT22;20549;50.042;8.968;2023-05-02T05:59:11;15.30;68.40
30999;DHT22;20549;50.042;8.968;2023-05-02T06:01:37;15.40;68.20
30999;DHT22;20549;50.042;8.968;2023-05-02T06:04:04;15.60;68.20
30999;DHT22;20549;50.042;8.968;2023-05-02T06:06:30;15.70;68.20
30999;DHT22;20549;50.042;8.968;2023-05-02T06:08:57;15.90;68.20
30999;DHT22;20549;50.042;8.968;2023-05-02T06:11:24;16.10;68.10
30999;DHT22;20549;50.042;8.968;2023-05-02T06:13:50;16.30;68.40
30999;DHT22;20549;50.042;8.968;2023-05-02T06:16:17;16.70;69.20
30999;DHT22;20549;50.042;8.968;2023-05-02T06:18:44;17.10;69.20
30999;DHT22;20549;50.042;8.968;2023-05-02T06:21:10;17.60;68.80
30999;DHT22;20549;50.042;8.968;2023-05-02T06:23:37;18.10;69.00
30999;DHT22;20549;50.042;8.968;2023-05-02T06:26:03;18.60;67.30
30999;DHT22;20549;50.042;8.968;2023-05-02T06:28:30;19.00;65.90
30999;DHT22;20549;50.042;8.968;2023-05-02T06:31:00;19.30;64.40
30999;DHT22;20549;50.042;8.968;2023-05-02T06:33:29;19.60;63.20
30999;DHT22;20549;50.042;8.968;2023-05-02T06:35:55;19.80;62.80
30999;DHT22;20549;50.042;8.968;2023-05-02T06:38:22;20.10;63.10
30999;DHT22;20549;50.042;8.968;2023-05-02T06:40:49;20.50;63.20
30999;DHT22;20549;50.042;8.968;2023-05-02T06:43:15;20.90;62.80
30999;DHT22;20549;50.042;8.968;2023-05-02T06:45:42;21.30;62.10
30999;DHT22;20549;50.042;8.968;2023-05-02T06:48:08;21.90;62.10
30999;DHT22;20549;50.042;8.968;2023-05-02T06:50:35;22.40;61.60
30999;DHT22;20549;50.042;8.968;2023-05-02T06:53:03;23.10;60.50
30999;DHT22;20549;50.042;8.968;2023-05-02T06:55:28;23.70;59.50
30999;DHT22;20549;50.042;8.968;2023-05-02T06:57:55;24.20;58.50
30999;DHT22;20549;50.042;8.968;2023-05-02T07:00:21;24.70;57.10
30999;DHT22;20549;50.042;8.968;2023-05-02T07:02:48;25.00;55.70
30999;DHT22;20549;50.042;8.968;2023-05-02T07:05:15;25.20;54.60
30999;DHT22;20549;50.042;8.968;2023-05-02T07:07:41;25.20;53.50
30999;DHT22;20549;50.042;8.968;2023-05-02T07:10:08;25.00;52.90
30999;DHT22;20549;50.042;8.968;2023-05-02T07:12:34;24.90;52.40
30999;DHT22;20549;50.042;8.968;2023-05-02T07:15:01;24.80;52.90
30999;DHT22;20549;50.042;8.968;2023-05-02T07:17:27;24.80;53.40
30999;DHT22;20549;50.042;8.968;2023-05-02T07:19:54;24.90;53.20
30999;DHT22;20549;50.042;8.968;2023-05-02T07:22:21;24.80;52.50
30999;DHT22;20549;50.042;8.968;2023-05-02T07:24:47;24.80;51.50
30999;DHT22;20549;50.042;8.968;2023-05-02T07:27:14;24.80;52.40
30999;DHT22;20549;50.042;8.968;2023-05-02T07:29:40;24.80;52.60
30999;DHT22;20549;50.042;8.968;2023-05-02T07:32:07;24.90;52.60
30999;DHT22;20549;50.042;8.968;2023-05-02T07:34:33;24.90;51.90
30999;DHT22;20549;50.042;8.968;2023-05-02T07:37:00;24.90;51.70
30999;DHT22;20549;50.042;8.968;2023-05-02T07:39:27;25.00;51.50
30999;DHT22;20549;50.042;8.968;2023-05-02T07:41:53;25.10;51.40
30999;DHT22;20549;50.042;8.968;2023-05-02T07:44:20;25.20;51.60
30999;DHT22;20549;50.042;8.968;2023-05-02T07:46:46;25.40;50.80
30999;DHT22;20549;50.042;8.968;2023-05-02T07:49:13;25.50;50.30
30999;DHT22;20549;50.042;8.968;2023-05-02T07:51:40;25.50;50.40
30999;DHT22;20549;50.042;8.968;2023-05-02T07:54:19;25.60;50.40
30999;DHT22;20549;50.042;8.968;2023-05-02T07:56:45;25.70;50.20
30999;DHT22;20549;50.042;8.968;2023-05-02T07:59:11;25.90;50.70
30999;DHT22;20549;50.042;8.968;2023-05-02T08:01:41;26.20;51.20
30999;DHT22;20549;50.042;8.968;2023-05-02T08:04:07;26.60;51.10
30999;DHT22;20549;50.042;8.968;2023-05-02T08:06:34;27.00;50.30
30999;DHT22;20549;50.042;8.968;2023-05-02T08:09:01;27.20;48.90
30999;DHT22;20549;50.042;8.968;2023-05-02T08:11:27;27.20;47.80
30999;DHT22;20549;50.042;8.968;2023-05-02T08:13:54;27.10;47.30
30999;DHT22;20549;50.042;8.968;2023-05-02T08:16:20;26.80;46.70
30999;DHT22;20549;50.042;8.968;2023-05-02T08:18:47;26.40;46.70
30999;DHT22;20549;50.042;8.968;2023-05-02T08:21:14;26.00;46.40
30999;DHT22;20549;50.042;8.968;2023-05-02T08:23:40;25.50;46.40
30999;DHT22;20549;50.042;8.968;2023-05-02T08:26:07;25.10;46.60
30999;DHT22;20549;50.042;8.968;2023-05-02T08:28:33;24.60;46.90
30999;DHT22;20549;50.042;8.968;2023-05-02T08:31:00;24.10;47.40
30999;DHT22;20549;50.042;8.968;2023-05-02T08:33:26;23.60;47.60
30999;DHT22;20549;50.042;8.968;2023-05-02T08:35:53;23.10;48.00
30999;DHT22;20549;50.042;8.968;2023-05-02T08:38:20;22.70;48.50
30999;DHT22;20549;50.042;8.968;2023-05-02T08:40:46;22.30;49.00
30999;DHT22;20549;50.042;8.968;2023-05-02T08:43:14;21.90;49.40
30999;DHT22;20549;50.042;8.968;2023-05-02T08:45:40;21.50;49.90
30999;DHT22;20549;50.042;8.968;2023-05-02T08:48:07;21.20;50.30
30999;DHT22;20549;50.042;8.968;2023-05-02T08:50:42;21.00;50.80
30999;DHT22;20549;50.042;8.968;2023-05-02T08:53:05;20.70;51.20
30999;DHT22;20549;50.042;8.968;2023-05-02T08:55:32;20.50;51.40
30999;DHT22;20549;50.042;8.968;2023-05-02T08:57:58;20.30;51.60
30999;DHT22;20549;50.042;8.968;2023-05-02T09:00:25;20.10;52.00
30999;DHT22;20549;50.042;8.968;2023-05-02T09:05:52;19.80;52.50
30999;DHT22;20549;50.042;8.968;2023-05-02T09:08:24;19.70;52.70
30999;DHT22;20549;50.042;8.968;2023-05-02T09:10:51;19.60;52.60
30999;DHT22;20549;50.042;8.968;2023-05-02T09:15:59;19.40;53.10
30999;DHT22;20549;50.042;8.968;2023-05-02T09:18:28;19.40;53.40
30999;DHT22;20549;50.042;8.968;2023-05-02T09:20:54;19.30;53.60
30999;DHT22;20549;50.042;8.968;2023-05-02T09:23:24;19.30;53.80
30999;DHT22;20549;50.042;8.968;2023-05-02T09:25:47;19.30;54.00
30999;DHT22;20549;50.042;8.968;2023-05-02T09:28:14;19.30;54.10
30999;DHT22;20549;50.042;8.968;2023-05-02T09:30:40;19.30;54.20
30999;DHT22;20549;50.042;8.968;2023-05-02T09:33:07;19.40;54.20
30999;DHT22;20549;50.042;8.968;2023-05-02T09:35:33;19.40;54.20
30999;DHT22;20549;50.042;8.968;2023-05-02T09:38:00;19.40;54.20
30999;DHT22;20549;50.042;8.968;2023-05-02T09:40:26;19.40;54.20
30999;DHT22;20549;50.042;8.968;2023-05-02T09:42:53;19.40;54.30
30999;DHT22;20549;50.042;8.968;2023-05-02T09:45:20;19.50;54.50
30999;DHT22;20549;50.042;8.968;2023-05-02T09:47:46;19.60;54.60
30999;DHT22;20549;50.042;8.968;2023-05-02T09:50:32;19.80;54.80
30999;DHT22;20549;50.042;8.968;2023-05-02T09:53:04;20.00;55.00
30999;DHT22;20549;50.042;8.968;2023-05-02T09:55:30;20.30;55.10
30999;DHT22;20549;50.042;8.968;2023-05-02T09:57:57;20.70;55.10
30999;DHT22;20549;50.042;8.968;2023-05-02T10:00:39;21.00;54.80
30999;DHT22;20549;50.042;8.968;2023-05-02T10:03:07;21.40;54.60
30999;DHT22;20549;50.042;8.968;2023-05-02T10:05:38;21.80;54.40
30999;DHT22;20549;50.042;8.968;2023-05-02T10:08:07;22.20;53.80
30999;DHT22;20549;50.042;8.968;2023-05-02T10:10:37;22.50;52.90
30999;DHT22;20549;50.042;8.968;2023-05-02T10:13:03;22.70;52.30
30999;DHT22;20549;50.042;8.968;2023-05-02T10:15:32;22.90;51.80
30999;DHT22;20549;50.042;8.968;2023-05-02T10:17:59;23.10;51.50
30999;DHT22;20549;50.042;8.968;2023-05-02T10:20:29;23.20;51.30
30999;DHT22;20549;50.042;8.968;2023-05-02T10:22:52;23.30;51.00
30999;DHT22;20549;50.042;8.968;2023-05-02T10:25:18;23.40;50.80
30999;DHT22;20549;50.042;8.968;2023-05-02T10:27:45;23.60;50.60
30999;DHT22;20549;50.042;8.968;2023-05-02T10:30:11;23.70;50.30
30999;DHT22;20549;50.042;8.968;2023-05-02T10:32:38;23.70;49.70
30999;DHT22;20549;50.042;8.968;2023-05-02T10:35:05;23.70;49.30
30999;DHT22;20549;50.042;8.968;2023-05-02T10:37:32;23.70;49.10
30999;DHT22;20549;50.042;8.968;2023-05-02T10:39:58;23.70;49.00
30999;DHT22;20549;50.042;8.968;2023-05-02T10:42:24;23.70;49.10
30999;DHT22;20549;50.042;8.968;2023-05-02T10:44:51;23.60;49.20
30999;DHT22;20549;50.042;8.968;2023-05-02T10:47:27;23.60;49.20
30999;DHT22;20549;50.042;8.968;2023-05-02T10:49:50;23.70;49.30
30999;DHT22;20549;50.042;8.968;2023-05-02T10:52:35;23.70;49.30
30999;DHT22;20549;50.042;8.968;2023-05-02T10:55:18;23.80;49.10
30999;DHT22;20549;50.042;8.968;2023-05-02T11:00:31;24.10;49.40
30999;DHT22;20549;50.042;8.968;2023-05-02T11:02:58;24.20;49.40
30999;DHT22;20549;50.042;8.968;2023-05-02T11:05:24;24.40;49.30
30999;DHT22;20549;50.042;8.968;2023-05-02T11:10:42;24.70;48.80
30999;DHT22;20549;50.042;8.968;2023-05-02T11:13:09;24.80;48.60
30999;DHT22;20549;50.042;8.968;2023-05-02T11:18:11;24.90;47.80
30999;DHT22;20549;50.042;8.968;2023-05-02T11:20:41;24.90;48.40
30999;DHT22;20549;50.042;8.968;2023-05-02T11:25:45;24.90;47.10
30999;DHT22;20549;50.042;8.968;2023-05-02T11:31:06;24.80;47.20
30999;DHT22;20549;50.042;8.968;2023-05-02T11:33:32;24.70;47.30
30999;DHT22;20549;50.042;8.968;2023-05-02T11:35:58;24.70;47.30
30999;DHT22;20549;50.042;8.968;2023-05-02T11:38:25;24.70;47.30
30999;DHT22;20549;50.042;8.968;2023-05-02T11:40:52;24.80;47.10
30999;DHT22;20549;50.042;8.968;2023-05-02T11:43:18;24.80;47.10
30999;DHT22;20549;50.042;8.968;2023-05-02T11:45:45;24.80;47.00
30999;DHT22;20549;50.042;8.968;2023-05-02T11:48:12;24.90;46.80
30999;DHT22;20549;50.042;8.968;2023-05-02T11:50:41;24.90;46.20
30999;DHT22;20549;50.042;8.968;2023-05-02T11:53:15;24.80;45.90
30999;DHT22;20549;50.042;8.968;2023-05-02T11:55:49;24.60;45.70
30999;DHT22;20549;50.042;8.968;2023-05-02T11:58:19;24.40;45.50
30999;DHT22;20549;50.042;8.968;2023-05-02T12:00:45;24.20;45.70
30999;DHT22;20549;50.042;8.968;2023-05-02T12:03:30;23.90;45.20
30999;DHT22;20549;50.042;8.968;2023-05-02T12:05:57;23.70;45.30
30999;DHT22;20549;50.042;8.968;2023-05-02T12:08:26;23.50;45.50
30999;DHT22;20549;50.042;8.968;2023-05-02T12:10:53;23.30;45.60
30999;DHT22;20549;50.042;8.968;2023-05-02T12:13:20;23.20;45.90
30999;DHT22;20549;50.042;8.968;2023-05-02T12:15:45;23.10;46.20
30999;DHT22;20549;50.042;8.968;2023-05-02T12:18:12;23.00;46.40
30999;DHT22;20549;50.042;8.968;2023-05-02T12:20:38;23.00;46.40
30999;DHT22;20549;50.042;8.968;2023-05-02T12:23:05;23.00;46.50
30999;DHT22;20549;50.042;8.968;2023-05-02T12:25:40;23.00;46.60
30999;DHT22;20549;50.042;8.968;2023-05-02T12:28:07;23.00;46.80
30999;DHT22;20549;50.042;8.968;2023-05-02T12:30:33;23.00;47.00
30999;DHT22;20549;50.042;8.968;2023-05-02T12:33:00;23.10;47.00
30999;DHT22;20549;50.042;8.968;2023-05-02T12:35:29;23.20;46.80
30999;DHT22;20549;50.042;8.968;2023-05-02T12:38:09;23.30;46.80
30999;DHT22;20549;50.042;8.968;2023-05-02T12:40:35;23.40;46.70
30999;DHT22;20549;50.042;8.968;2023-05-02T12:43:02;23.50;46.50
30999;DHT22;20549;50.042;8.968;2023-05-02T12:45:31;23.50;46.30
30999;DHT22;20549;50.042;8.968;2023-05-02T12:47:54;23.50;46.20
30999;DHT22;20549;50.042;8.968;2023-05-02T12:50:33;23.50;46.10
30999;DHT22;20549;50.042;8.968;2023-05-02T12:52:51;23.60;46.00
30999;DHT22;20549;50.042;8.968;2023-05-02T12:55:20;23.50;45.70
30999;DHT22;20549;50.042;8.968;2023-05-02T12:57:46;23.50;45.80
30999;DHT22;20549;50.042;8.968;2023-05-02T13:00:15;23.50;46.00
30999;DHT22;20549;50.042;8.968;2023-05-02T13:02:39;23.40;46.00
30999;DHT22;20549;50.042;8.968;2023-05-02T13:05:15;23.40;45.90
30999;DHT22;20549;50.042;8.968;2023-05-02T13:07:41;23.30;45.90
30999;DHT22;20549;50.042;8.968;2023-05-02T13:10:08;23.30;46.10
30999;DHT22;20549;50.042;8.968;2023-05-02T13:12:34;23.20;46.20
30999;DHT22;20549;50.042;8.968;2023-05-02T13:15:01;23.30;46.40
30999;DHT22;20549;50.042;8.968;2023-05-02T13:17:28;23.20;46.20
30999;DHT22;20549;50.042;8.968;2023-05-02T13:19:54;23.30;46.20
30999;DHT22;20549;50.042;8.968;2023-05-02T13:22:21;23.30;46.20
30999;DHT22;20549;50.042;8.968;2023-05-02T13:24:47;23.20;46.10
30999;DHT22;20549;50.042;8.968;2023-05-02T13:27:14;23.20;46.10
30999;DHT22;20549;50.042;8.968;2023-05-02T13:29:41;23.20;46.00
30999;DHT22;20549;50.042;8.968;2023-05-02T13:32:07;23.10;45.90
30999;DHT22;20549;50.042;8.968;2023-05-02T13:34:34;23.10;45.90
30999;DHT22;20549;50.042;8.968;2023-05-02T13:37:00;23.10;45.80
30999;DHT22;20549;50.042;8.968;2023-05-02T13:39:27;23.00;45.60
30999;DHT22;20549;50.042;8.968;2023-05-02T13:41:54;22.90;45.40
30999;DHT22;20549;50.042;8.968;2023-05-02T13:44:20;22.80;45.40
30999;DHT22;20549;50.042;8.968;2023-05-02T13:46:47;22.80;45.40
30999;DHT22;20549;50.042;8.968;2023-05-02T13:49:13;22.60;45.60
30999;DHT22;20549;50.042;8.968;2023-05-02T13:51:40;22.50;45.60
30999;DHT22;20549;50.042;8.968;2023-05-02T13:54:06;22.40;45.60
30999;DHT22;20549;50.042;8.968;2023-05-02T13:56:33;22.20;45.60
30999;DHT22;20549;50.042;8.968;2023-05-02T13:59:00;22.10;45.70
30999;DHT22;20549;50.042;8.968;2023-05-02T14:01:26;22.00;45.90
30999;DHT22;20549;50.042;8.968;2023-05-02T14:03:53;21.90;46.00
30999;DHT22;20549;50.042;8.968;2023-05-02T14:06:19;21.90;46.20
30999;DHT22;20549;50.042;8.968;2023-05-02T14:08:46;21.80;46.50
30999;DHT22;20549;50.042;8.968;2023-05-02T14:11:13;21.80;46.60
30999;DHT22;20549;50.042;8.968;2023-05-02T14:13:39;21.80;46.40
30999;DHT22;20549;50.042;8.968;2023-05-02T14:16:06;21.90;46.30
30999;DHT22;20549;50.042;8.968;2023-05-02T14:18:32;21.90;46.20
30999;DHT22;20549;50.042;8.968;2023-05-02T14:20:59;22.00;46.00
30999;DHT22;20549;50.042;8.968;2023-05-02T14:23:26;22.00;46.30
30999;DHT22;20549;50.042;8.968;2023-05-02T14:25:52;21.90;45.70
30999;DHT22;20549;50.042;8.968;2023-05-02T14:28:19;22.00;45.90
30999;DHT22;20549;50.042;8.968;2023-05-02T14:30:48;22.00;46.00
30999;DHT22;20549;50.042;8.968;2023-05-02T14:33:15;22.00;46.00
30999;DHT22;20549;50.042;8.968;2023-05-02T14:35:41;22.00;46.30
30999;DHT22;20549;50.042;8.968;2023-05-02T14:38:08;22.00;46.50
30999;DHT22;20549;50.042;8.968;2023-05-02T14:40:35;22.00;46.60
30999;DHT22;20549;50.042;8.968;2023-05-02T14:43:01;21.90;46.70
30999;DHT22;20549;50.042;8.968;2023-05-02T14:45:28;21.90;47.00
30999;DHT22;20549;50.042;8.968;2023-05-02T14:47:54;21.80;47.10
30999;DHT22;20549;50.042;8.968;2023-05-02T14:50:21;21.60;47.00
30999;DHT22;20549;50.042;8.968;2023-05-02T14:52:48;21.50;47.10
30999;DHT22;20549;50.042;8.968;2023-05-02T14:55:14;21.50;47.30
30999;DHT22;20549;50.042;8.968;2023-05-02T14:57:41;21.40;47.40
30999;DHT22;20549;50.042;8.968;2023-05-02T15:00:07;21.30;47.60
30999;DHT22;20549;50.042;8.968;2023-05-02T15:02:34;21.30;47.80
30999;DHT22;20549;50.042;8.968;2023-05-02T15:05:03;21.20;47.90
30999;DHT22;20549;50.042;8.968;2023-05-02T15:07:30;21.10;48.00
30999;DHT22;20549;50.042;8.968;2023-05-02T15:09:56;21.10;48.10
30999;DHT22;20549;50.042;8.968;2023-05-02T15:12:23;21.00;48.30
30999;DHT22;20549;50.042;8.968;2023-05-02T15:14:50;21.00;48.60
30999;DHT22;20549;50.042;8.968;2023-05-02T15:17:16;21.10;48.70
30999;DHT22;20549;50.042;8.968;2023-05-02T15:19:43;21.20;48.80
30999;DHT22;20549;50.042;8.968;2023-05-02T15:22:09;21.20;48.50
30999;DHT22;20549;50.042;8.968;2023-05-02T15:24:36;21.30;48.30
30999;DHT22;20549;50.042;8.968;2023-05-02T15:27:03;21.40;48.30
30999;DHT22;20549;50.042;8.968;2023-05-02T15:29:29;21.40;48.40
30999;DHT22;20549;50.042;8.968;2023-05-02T15:31:56;21.40;47.80
30999;DHT22;20549;50.042;8.968;2023-05-02T15:34:22;21.40;47.50
30999;DHT22;20549;50.042;8.968;2023-05-02T15:36:49;21.40;47.40
30999;DHT22;20549;50.042;8.968;2023-05-02T15:39:16;21.40;47.40
30999;DHT22;20549;50.042;8.968;2023-05-02T15:41:42;21.40;47.30
30999;DHT22;20549;50.042;8.968;2023-05-02T15:44:09;21.30;47.30
30999;DHT22;20549;50.042;8.968;2023-05-02T15:46:35;21.30;47.30
30999;DHT22;20549;50.042;8.968;2023-05-02T15:49:02;21.30;47.30
30999;DHT22;20549;50.042;8.968;2023-05-02T15:51:29;21.30;47.40
30999;DHT22;20549;50.042;8.968;2023-05-02T15:53:55;21.30;47.50
30999;DHT22;20549;50.042;8.968;2023-05-02T15:56:22;21.30;47.60
30999;DHT22;20549;50.042;8.968;2023-05-02T15:58:48;21.30;47.30
30999;DHT22;20549;50.042;8.968;2023-05-02T16:01:15;21.20;47.10
30999;DHT22;20549;50.042;8.968;2023-05-02T16:03:41;21.20;47.00
30999;DHT22;20549;50.042;8.968;2023-05-02T16:06:08;21.10;47.00